Time;durP1;ratioP1;P1;durP2;ratioP2;P2;SDS_P1;SDS_P2;PMS_P1;PMS_P2;Temp;Humidity;BMP_temperature;BMP_pressure;BME280_temperature;BME280_humidity;BME280_pressure;Samples;Min_cycle;Max_cycle;Signal;HPM_P1;HPM_P2
2022/08/19 00:00:19;;;;;;;8.00;7.40;;;29.30;99.60;;;;;;5124636;28;20449;-63
2022/08/19 00:02:50;;;;;;;6.17;5.77;;;29.30;99.10;;;;;;5123729;28;20797;-63
2022/08/19 00:05:22;;;;;;;7.07;6.57;;;29.20;99.20;;;;;;5124190;28;20476;-63
2022/08/19 00:07:53;;;;;;;7.23;6.73;;;29.10;99.60;;;;;;5123365;28;20428;-63
2022/08/19 00:10:26;;;;;;;7.73;7.13;;;29.10;99.90;;;;;;5140979;27;20441;-62
2022/08/19 00:12:57;;;;;;;6.93;6.40;;;29.30;99.00;;;;;;5133936;27;20492;-62
2022/08/19 00:15:27;;;;;;;8.20;7.60;;;29.20;99.30;;;;;;5119136;28;20473;-63
2022/08/19 00:17:58;;;;;;;7.37;6.87;;;29.20;99.90;;;;;;5115614;28;20470;-63
2022/08/19 00:20:29;;;;;;;8.90;8.10;;;29.20;99.70;;;;;;5121973;28;20456;-62
2022/08/19 00:23:00;;;;;;;7.60;7.00;;;29.10;99.90;;;;;;5120471;28;20462;-62
2022/08/19 00:25:32;;;;;;;7.90;7.30;;;29.00;99.80;;;;;;5126111;27;20445;-62
2022/08/19 00:28:03;;;;;;;7.40;6.90;;;29.00;99.90;;;;;;5114127;27;20562;-62
2022/08/19 00:30:34;;;;;;;7.70;7.10;;;29.00;99.90;;;;;;5122901;28;20467;-62
2022/08/19 00:33:05;;;;;;;7.03;6.33;;;29.00;99.20;;;;;;5123597;27;20998;-62
2022/08/19 00:35:37;;;;;;;7.80;7.10;;;28.90;99.70;;;;;;5116590;27;20959;-63
2022/08/19 00:38:08;;;;;;;8.10;7.50;;;28.80;99.90;;;;;;5127104;27;20452;-63
2022/08/19 00:40:40;;;;;;;9.23;7.67;;;28.80;99.90;;;;;;5124724;27;20451;-62
2022/08/19 00:43:12;;;;;;;9.07;8.40;;;28.70;99.90;;;;;;5122588;27;20488;-62
2022/08/19 00:45:43;;;;;;;8.33;7.73;;;28.60;99.90;;;;;;5123496;27;20474;-65
2022/08/19 00:48:15;;;;;;;7.97;7.37;;;28.40;99.90;;;;;;5108931;28;20475;-63
2022/08/19 00:50:47;;;;;;;8.57;7.67;;;28.30;99.90;;;;;;5132210;27;20469;-62
2022/08/19 00:53:26;;;;;;;7.87;7.27;;;28.20;99.90;;;;;;5128107;27;20563;-62
2022/08/19 00:56:02;;;;;;;8.87;8.07;;;28.30;99.90;;;;;;5106745;28;20459;-62
2022/08/19 00:58:35;;;;;;;8.43;7.80;;;28.40;99.90;;;;;;5106296;28;20465;-64
2022/08/19 01:01:07;;;;;;;9.00;8.30;;;28.40;99.90;;;;;;5105811;28;20470;-63
2022/08/19 01:03:40;;;;;;;7.20;6.70;;;28.40;99.90;;;;;;5115160;28;20459;-64
2022/08/19 01:06:28;;;;;;;8.57;7.87;;;28.40;99.90;;;;;;5105595;27;20575;-63
2022/08/19 01:08:58;;;;;;;8.67;7.97;;;28.40;99.90;;;;;;5121236;28;20464;-64
2022/08/19 01:11:33;;;;;;;8.07;7.47;;;28.40;99.90;;;;;;5121094;28;20486;-65
2022/08/19 01:14:04;;;;;;;7.77;7.07;;;28.40;99.90;;;;;;5118181;28;20513;-64
2022/08/19 01:16:36;;;;;;;8.83;7.97;;;28.30;99.90;;;;;;5121214;28;20881;-65
2022/08/19 01:19:14;;;;;;;8.00;7.30;;;28.20;99.90;;;;;;5122097;28;20540;-66
2022/08/19 01:21:51;;;;;;;8.20;7.40;;;28.30;99.90;;;;;;5112953;28;20467;-65
2022/08/19 01:24:24;;;;;;;8.40;7.80;;;28.10;99.90;;;;;;5119779;27;20465;-65
2022/08/19 01:26:54;;;;;;;8.87;8.17;;;28.10;99.90;;;;;;5120662;27;20444;-65
2022/08/19 01:29:25;;;;;;;8.27;7.60;;;28.10;99.90;;;;;;5129222;28;20450;-65
2022/08/19 01:31:57;;;;;;;8.17;7.57;;;27.90;99.90;;;;;;5116925;28;20449;-66
2022/08/19 01:34:27;;;;;;;8.70;8.00;;;27.80;99.90;;;;;;5124951;28;20449;-65
2022/08/19 01:36:58;;;;;;;8.60;7.90;;;27.70;99.90;;;;;;5121238;27;20464;-67
2022/08/19 01:39:31;;;;;;;9.90;9.20;;;27.60;99.90;;;;;;5120616;28;20460;-66
2022/08/19 01:42:02;;;;;;;8.63;7.93;;;27.80;99.90;;;;;;5129985;28;20546;-67
2022/08/19 01:44:33;;;;;;;9.10;8.40;;;27.90;99.90;;;;;;5121651;28;20464;-68
2022/08/19 01:47:05;;;;;;;8.70;8.00;;;27.90;99.90;;;;;;5114712;28;20470;-69
2022/08/19 01:49:36;;;;;;;8.80;7.97;;;27.70;99.90;;;;;;5114627;28;20471;-66
2022/08/19 01:52:07;;;;;;;8.97;8.17;;;27.60;99.90;;;;;;5130662;28;20458;-68
2022/08/19 01:54:40;;;;;;;8.40;7.77;;;27.60;99.90;;;;;;5123786;28;20462;-68
2022/08/19 01:57:14;;;;;;;7.90;7.30;;;27.50;99.90;;;;;;5139495;27;20438;-65
2022/08/19 01:59:47;;;;;;;8.67;7.97;;;27.60;99.90;;;;;;5115615;28;20461;-66
2022/08/19 02:02:17;;;;;;;8.00;7.33;;;27.50;99.90;;;;;;5119210;28;21006;-65
2022/08/19 02:04:48;;;;;;;7.00;6.50;;;27.70;99.90;;;;;;5113846;28;20837;-64
2022/08/19 02:07:22;;;;;;;7.03;6.43;;;27.80;99.90;;;;;;5114862;28;20465;-65
2022/08/19 02:09:54;;;;;;;7.67;6.97;;;27.80;99.90;;;;;;5119404;28;20461;-66
2022/08/19 02:12:25;;;;;;;7.53;6.93;;;27.90;99.90;;;;;;5130937;28;20451;-66
2022/08/19 02:14:56;;;;;;;8.00;7.40;;;27.90;99.90;;;;;;5131581;27;20477;-65
2022/08/19 02:17:28;;;;;;;9.60;8.80;;;27.90;99.90;;;;;;5109840;27;20461;-65
2022/08/19 02:19:59;;;;;;;9.83;8.90;;;27.90;99.90;;;;;;5116132;28;20458;-65
2022/08/19 02:22:30;;;;;;;8.13;7.43;;;27.90;99.90;;;;;;5121060;28;20455;-65
2022/08/19 02:25:04;;;;;;;8.20;7.53;;;27.90;99.90;;;;;;5118132;28;20485;-65
2022/08/19 02:27:35;;;;;;;8.00;7.40;;;27.90;99.90;;;;;;5127664;27;20451;-65
2022/08/19 02:30:08;;;;;;;8.60;7.90;;;27.80;99.90;;;;;;5131203;27;20469;-66
2022/08/19 02:32:43;;;;;;;8.97;8.20;;;27.70;99.90;;;;;;5119474;27;20449;-66
2022/08/19 02:35:14;;;;;;;8.43;7.73;;;27.60;99.90;;;;;;5136787;27;20446;-65
2022/08/19 02:40:35;;;;;;;8.83;7.93;;;27.30;99.90;;;;;;5125201;27;20565;-66
2022/08/19 02:43:09;;;;;;;9.20;8.40;;;27.20;99.90;;;;;;5129735;27;20464;-66
2022/08/19 02:45:40;;;;;;;8.80;8.07;;;27.30;99.90;;;;;;5130309;27;20484;-65
2022/08/19 02:48:11;;;;;;;8.83;8.10;;;27.20;99.90;;;;;;5123729;27;20560;-65
2022/08/19 02:50:55;;;;;;;8.73;7.90;;;27.20;99.90;;;;;;5122109;27;20487;-65
2022/08/19 02:53:28;;;;;;;7.97;7.27;;;27.10;99.90;;;;;;5117348;28;20517;-64
2022/08/19 02:56:00;;;;;;;9.30;8.50;;;27.00;99.90;;;;;;5119660;28;20465;-65
2022/08/19 02:58:31;;;;;;;7.87;7.17;;;27.00;99.90;;;;;;5118672;27;21229;-65
2022/08/19 03:01:02;;;;;;;8.00;7.30;;;26.90;99.90;;;;;;5122161;27;20519;-64
2022/08/19 03:03:33;;;;;;;8.23;7.53;;;26.80;99.90;;;;;;5122539;27;20469;-65
2022/08/19 03:06:12;;;;;;;9.20;8.10;;;26.70;99.90;;;;;;5122049;28;20573;-65
2022/08/19 03:08:45;;;;;;;9.50;8.60;;;26.70;99.90;;;;;;5117326;27;20461;-65
2022/08/19 03:11:19;;;;;;;9.40;8.50;;;26.60;99.90;;;;;;5121985;27;20457;-65
2022/08/19 03:13:51;;;;;;;8.60;7.90;;;26.50;99.90;;;;;;5128092;27;20597;-67
2022/08/19 03:16:23;;;;;;;9.27;8.47;;;26.50;99.90;;;;;;5115169;27;20469;-65
2022/08/19 03:18:59;;;;;;;8.80;8.17;;;26.40;99.90;;;;;;5113549;27;20462;-64
2022/08/19 03:21:33;;;;;;;10.10;9.20;;;26.40;99.90;;;;;;5122583;27;20494;-63
2022/08/19 03:24:07;;;;;;;10.90;9.90;;;26.40;99.90;;;;;;5125296;27;20458;-63
2022/08/19 03:26:41;;;;;;;11.00;9.90;;;26.60;99.90;;;;;;5119481;27;20821;-62
2022/08/19 03:29:12;;;;;;;9.70;8.80;;;26.60;99.90;;;;;;5118567;27;20559;-62
2022/08/19 03:31:54;;;;;;;11.20;10.30;;;26.50;99.90;;;;;;5118543;27;20444;-63
2022/08/19 03:34:27;;;;;;;10.80;10.00;;;26.40;99.90;;;;;;5119386;27;20494;-63
2022/08/19 03:36:59;;;;;;;10.13;9.10;;;26.40;99.90;;;;;;5134143;27;20464;-63
2022/08/19 03:39:30;;;;;;;9.60;8.67;;;26.30;99.90;;;;;;5112752;27;20464;-64
2022/08/19 03:42:03;;;;;;;10.40;8.80;;;26.30;99.90;;;;;;5121508;27;20501;-63
2022/08/19 03:44:54;;;;;;;9.77;8.97;;;26.30;99.90;;;;;;5117853;27;20456;-63
2022/08/19 03:47:25;;;;;;;9.97;9.17;;;26.20;99.90;;;;;;5142972;27;20467;-64
2022/08/19 03:49:56;;;;;;;10.07;9.27;;;26.10;99.90;;;;;;5113094;27;20456;-62
2022/08/19 03:52:26;;;;;;;10.77;9.97;;;26.10;99.90;;;;;;5134964;27;20459;-62
2022/08/19 03:54:57;;;;;;;10.07;9.27;;;26.00;99.90;;;;;;5120840;27;20508;-65
2022/08/19 03:57:30;;;;;;;9.00;8.30;;;26.00;99.90;;;;;;5143363;27;20502;-65
2022/08/19 04:00:01;;;;;;;10.20;9.40;;;25.90;99.90;;;;;;5130589;27;20502;-65
2022/08/19 04:02:43;;;;;;;10.60;9.80;;;25.90;99.90;;;;;;5128755;27;20547;-66
2022/08/19 04:05:29;;;;;;;10.10;9.40;;;25.80;99.90;;;;;;5133208;27;20485;-67
2022/08/19 04:08:00;;;;;;;10.47;9.47;;;25.70;99.90;;;;;;5143095;27;20443;-67
2022/08/19 04:10:31;;;;;;;9.43;8.53;;;25.60;99.90;;;;;;5123852;27;20587;-66
2022/08/19 04:13:03;;;;;;;9.10;8.30;;;25.60;99.90;;;;;;5124460;27;20461;-66
2022/08/19 04:15:39;;;;;;;8.90;8.20;;;25.60;99.90;;;;;;5118581;27;20507;-66
2022/08/19 04:18:10;;;;;;;9.87;8.97;;;25.60;99.90;;;;;;5104277;27;20479;-65
2022/08/19 04:20:46;;;;;;;10.00;9.20;;;25.50;99.90;;;;;;5118782;27;20449;-65
2022/08/19 04:23:17;;;;;;;10.03;9.03;;;25.50;99.90;;;;;;5133798;27;20758;-65
2022/08/19 04:25:48;;;;;;;10.03;9.23;;;25.50;99.90;;;;;;5130775;27;20456;-65
2022/08/19 04:28:20;;;;;;;8.90;8.20;;;25.50;99.90;;;;;;5122565;27;20549;-65
2022/08/19 04:30:53;;;;;;;9.70;8.90;;;25.40;99.90;;;;;;5125966;27;20458;-65
2022/08/19 04:33:25;;;;;;;10.40;9.50;;;25.50;99.90;;;;;;5123770;27;20924;-65
2022/08/19 04:35:58;;;;;;;10.70;9.80;;;25.60;99.90;;;;;;5117399;28;20529;-65
2022/08/19 04:38:28;;;;;;;10.03;9.20;;;25.60;99.90;;;;;;5123480;28;20449;-64
2022/08/19 04:43:49;;;;;;;10.97;10.07;;;25.60;99.90;;;;;;5116128;28;20465;-65
2022/08/19 04:46:20;;;;;;;10.97;10.00;;;25.70;99.90;;;;;;5129534;27;20455;-66
2022/08/19 04:49:09;;;;;;;9.63;8.83;;;25.50;99.90;;;;;;5125651;27;20478;-66
2022/08/19 04:51:44;;;;;;;10.20;9.20;;;25.30;99.90;;;;;;5125059;27;20488;-65
2022/08/19 04:54:16;;;;;;;11.23;9.30;;;25.30;99.90;;;;;;5128570;27;20488;-66
2022/08/19 04:57:07;;;;;;;9.67;8.87;;;25.20;99.90;;;;;;5113128;28;20451;-65
2022/08/19 04:59:40;;;;;;;11.47;10.20;;;25.20;99.90;;;;;;5108482;27;20470;-65
2022/08/19 05:02:12;;;;;;;10.57;9.67;;;25.20;99.90;;;;;;5119705;27;20469;-64
2022/08/19 05:04:42;;;;;;;11.93;10.80;;;25.20;99.90;;;;;;5141797;27;20847;-66
2022/08/19 05:07:13;;;;;;;11.40;10.50;;;25.10;99.90;;;;;;5133160;27;20936;-64
2022/08/19 05:09:44;;;;;;;11.30;10.20;;;25.10;99.90;;;;;;5126412;27;20462;-64
2022/08/19 05:12:28;;;;;;;11.50;10.60;;;25.10;99.90;;;;;;5123785;27;20455;-65
2022/08/19 05:15:01;;;;;;;11.50;10.50;;;25.00;99.90;;;;;;5127527;27;20541;-65
2022/08/19 05:17:32;;;;;;;10.50;9.60;;;25.00;99.90;;;;;;5114123;27;20478;-65
2022/08/19 05:22:56;;;;;;;12.23;11.13;;;25.00;99.90;;;;;;5121281;27;20463;-65
2022/08/19 05:25:27;;;;;;;10.50;9.50;;;25.00;99.90;;;;;;5121913;28;20464;-66
2022/08/19 05:27:58;;;;;;;11.73;10.73;;;25.00;99.90;;;;;;5126944;27;20475;-65
2022/08/19 05:30:30;;;;;;;11.90;10.90;;;25.00;99.90;;;;;;5119149;28;20446;-66
2022/08/19 05:33:16;;;;;;;10.53;9.73;;;25.00;99.90;;;;;;5110155;28;20451;-66
2022/08/19 05:35:48;;;;;;;10.53;9.70;;;25.00;99.90;;;;;;5114618;28;20507;-65
2022/08/19 05:38:19;;;;;;;11.40;10.43;;;24.90;99.90;;;;;;5114916;28;20462;-65
2022/08/19 05:40:50;;;;;;;10.80;9.93;;;25.00;99.90;;;;;;5136893;28;20512;-66
2022/08/19 05:43:21;;;;;;;11.10;10.00;;;24.90;99.90;;;;;;5112063;28;20445;-66
2022/08/19 05:45:53;;;;;;;12.30;11.20;;;24.80;99.90;;;;;;5134376;27;20463;-65
2022/08/19 05:48:24;;;;;;;11.67;10.77;;;24.80;99.90;;;;;;5122297;28;20446;-65
2022/08/19 05:50:55;;;;;;;11.90;10.73;;;24.80;99.90;;;;;;5122950;28;20950;-66
2022/08/19 05:53:25;;;;;;;11.53;10.63;;;24.80;99.90;;;;;;5143378;27;20520;-66
2022/08/19 05:55:56;;;;;;;11.23;10.13;;;24.70;99.90;;;;;;5116717;27;20919;-66
2022/08/19 05:58:27;;;;;;;11.50;10.60;;;24.70;99.90;;;;;;5118285;28;20456;-66
2022/08/19 06:01:04;;;;;;;12.30;10.50;;;24.60;99.90;;;;;;5131418;27;20480;-66
2022/08/19 06:03:36;;;;;;;10.00;9.20;;;24.60;99.90;;;;;;5147462;27;20445;-65
2022/08/19 06:06:07;;;;;;;11.83;10.07;;;24.60;99.90;;;;;;5146039;27;20925;-65
2022/08/19 06:08:38;;;;;;;10.77;9.87;;;24.60;99.90;;;;;;5138510;27;20458;-66
2022/08/19 06:11:17;;;;;;;11.90;10.77;;;24.60;99.90;;;;;;5123317;27;20462;-66
2022/08/19 06:13:50;;;;;;;10.67;9.90;;;24.60;99.90;;;;;;5127462;27;20446;-66
2022/08/19 06:16:33;;;;;;;9.83;9.00;;;24.50;99.90;;;;;;5131747;27;20525;-66
2022/08/19 06:19:07;;;;;;;10.17;9.37;;;24.50;99.90;;;;;;5122582;28;20453;-65
2022/08/19 06:21:40;;;;;;;11.00;10.10;;;24.50;99.90;;;;;;5111862;27;20486;-65
2022/08/19 06:24:15;;;;;;;10.40;9.60;;;24.50;99.90;;;;;;5122388;28;20520;-65
2022/08/19 06:26:48;;;;;;;11.10;10.20;;;24.40;99.90;;;;;;5135606;27;20477;-66
2022/08/19 06:29:24;;;;;;;11.60;10.60;;;24.40;99.90;;;;;;5136703;27;20497;-65
2022/08/19 06:31:58;;;;;;;10.27;9.47;;;24.40;99.90;;;;;;5121193;27;20455;-66
2022/08/19 06:34:30;;;;;;;10.33;9.53;;;24.40;99.90;;;;;;5122024;27;20579;-65
2022/08/19 06:37:02;;;;;;;12.07;11.07;;;24.40;99.90;;;;;;5123385;27;20481;-66
2022/08/19 06:39:40;;;;;;;11.97;10.77;;;24.30;99.90;;;;;;5125371;27;20465;-66
2022/08/19 06:42:15;;;;;;;12.47;11.27;;;24.30;99.90;;;;;;5130740;27;20482;-66
2022/08/19 06:44:49;;;;;;;11.30;10.30;;;24.30;99.90;;;;;;5114204;28;20950;-66
2022/08/19 06:47:24;;;;;;;10.83;9.83;;;24.40;99.90;;;;;;5119845;27;20576;-66
2022/08/19 06:50:02;;;;;;;11.37;10.23;;;24.30;99.90;;;;;;5124788;27;20461;-66
2022/08/19 06:52:35;;;;;;;11.30;10.30;;;24.30;99.90;;;;;;5105580;28;20470;-66
2022/08/19 06:55:07;;;;;;;10.67;9.77;;;24.30;99.90;;;;;;5113206;27;20500;-66
2022/08/19 06:57:38;;;;;;;11.50;10.50;;;24.30;99.90;;;;;;5136105;27;20479;-65
2022/08/19 07:00:12;;;;;;;11.20;10.30;;;24.30;99.90;;;;;;5129495;27;20485;-66
2022/08/19 07:02:46;;;;;;;10.57;9.77;;;24.20;99.90;;;;;;5116558;27;20540;-66
2022/08/19 07:05:26;;;;;;;11.20;10.20;;;24.20;99.90;;;;;;5108555;27;20564;-66
2022/08/19 07:07:57;;;;;;;11.03;10.13;;;24.20;99.90;;;;;;5124159;28;20457;-66
2022/08/19 07:10:34;;;;;;;10.97;9.97;;;24.20;99.90;;;;;;5137481;27;20472;-66
2022/08/19 07:13:05;;;;;;;11.17;10.20;;;24.20;99.90;;;;;;5112981;27;20468;-66
2022/08/19 07:15:38;;;;;;;10.50;8.90;;;24.20;99.90;;;;;;5112702;27;20486;-66
2022/08/19 07:18:10;;;;;;;10.60;9.60;;;24.20;99.90;;;;;;5113818;28;20457;-66
2022/08/19 07:20:42;;;;;;;11.53;10.53;;;24.20;99.90;;;;;;5135915;27;20457;-66
2022/08/19 07:23:14;;;;;;;11.50;10.40;;;24.20;99.90;;;;;;5124760;27;20460;-66
2022/08/19 07:25:46;;;;;;;11.10;10.20;;;24.20;99.90;;;;;;5129289;27;20545;-65
2022/08/19 07:28:22;;;;;;;12.63;11.47;;;24.10;99.90;;;;;;5145295;27;20601;-65
2022/08/19 07:30:56;;;;;;;10.00;9.20;;;24.00;99.90;;;;;;5145272;27;20539;-66
2022/08/19 07:33:32;;;;;;;11.40;10.40;;;24.00;99.90;;;;;;5130978;27;20592;-66
2022/08/19 07:36:03;;;;;;;11.00;10.00;;;24.00;99.90;;;;;;5121707;27;20491;-66
2022/08/19 07:38:34;;;;;;;10.77;9.87;;;24.00;99.90;;;;;;5116384;28;20545;-66
2022/08/19 07:41:05;;;;;;;11.93;10.97;;;24.00;99.90;;;;;;5128927;27;20932;-66
2022/08/19 07:43:37;;;;;;;10.90;9.90;;;24.00;99.90;;;;;;5144488;27;20465;-66
2022/08/19 07:46:08;;;;;;;11.13;10.03;;;24.00;99.90;;;;;;5120417;27;20476;-66
2022/08/19 07:48:41;;;;;;;10.97;10.17;;;24.00;99.90;;;;;;5105451;27;20919;-66
2022/08/19 07:51:16;;;;;;;11.80;10.63;;;23.90;99.90;;;;;;5118157;27;20462;-66
2022/08/19 07:54:06;;;;;;;11.97;11.00;;;23.90;99.90;;;;;;5113911;27;20445;-65
2022/08/19 07:56:37;;;;;;;10.70;9.80;;;23.80;99.90;;;;;;5133643;27;20511;-65
2022/08/19 07:59:08;;;;;;;11.40;10.40;;;23.80;99.90;;;;;;5115605;27;20455;-65
2022/08/19 08:01:40;;;;;;;11.67;10.67;;;23.70;99.90;;;;;;5111268;28;20462;-65
2022/08/19 08:09:49;;;;;;;11.37;10.40;;;23.60;99.90;;;;;;5122135;27;20568;-65
2022/08/19 08:12:24;;;;;;;11.73;10.73;;;23.50;99.90;;;;;;5124784;27;20450;-66
2022/08/19 08:15:08;;;;;;;12.00;11.10;;;23.50;99.90;;;;;;5138122;27;20525;-65
2022/08/19 08:17:42;;;;;;;11.37;10.47;;;23.40;99.90;;;;;;5110652;27;20492;-65
2022/08/19 08:20:22;;;;;;;11.40;10.50;;;23.40;99.90;;;;;;5116715;27;20537;-65
2022/08/19 08:25:40;;;;;;;11.03;10.07;;;23.30;99.90;;;;;;5112521;27;20461;-65
2022/08/19 08:28:12;;;;;;;11.20;10.30;;;23.30;99.90;;;;;;5119159;27;20871;-65
2022/08/19 08:30:47;;;;;;;10.13;9.27;;;23.20;99.90;;;;;;5113782;28;20458;-67
2022/08/19 08:33:21;;;;;;;10.67;9.77;;;23.20;99.90;;;;;;5117629;27;20448;-66
2022/08/19 08:36:07;;;;;;;12.27;11.27;;;23.20;99.90;;;;;;5121675;27;20489;-66
2022/08/19 08:38:40;;;;;;;11.10;10.10;;;23.20;99.90;;;;;;5113698;27;20627;-65
2022/08/19 08:41:20;;;;;;;11.30;10.30;;;23.20;99.90;;;;;;5115655;28;20518;-66
2022/08/19 08:43:53;;;;;;;10.67;9.83;;;23.20;99.90;;;;;;5120172;27;20461;-66
2022/08/19 08:46:31;;;;;;;9.27;8.40;;;23.20;99.90;;;;;;5106903;27;20467;-66
2022/08/19 08:49:08;;;;;;;12.10;11.00;;;23.10;99.90;;;;;;5128037;27;20550;-65
2022/08/19 08:51:47;;;;;;;11.50;10.47;;;23.10;99.90;;;;;;5118120;27;20553;-65
2022/08/19 08:54:34;;;;;;;11.10;10.00;;;23.00;99.90;;;;;;5113915;27;20470;-66
2022/08/19 08:57:11;;;;;;;10.60;9.67;;;23.00;99.90;;;;;;5130281;27;20492;-66
2022/08/19 08:59:44;;;;;;;12.13;11.07;;;23.00;99.90;;;;;;5117450;28;20458;-66
2022/08/19 09:02:15;;;;;;;9.60;8.83;;;22.90;99.90;;;;;;5119149;27;20456;-66
2022/08/19 09:04:46;;;;;;;10.20;9.40;;;22.90;99.90;;;;;;5119273;27;20610;-66
2022/08/19 09:07:28;;;;;;;11.43;10.43;;;22.90;99.90;;;;;;5109947;28;20459;-65
2022/08/19 09:10:11;;;;;;;11.43;10.33;;;22.90;99.90;;;;;;5118963;27;20512;-66
2022/08/19 09:12:55;;;;;;;11.57;10.60;;;22.90;99.90;;;;;;5126013;27;20448;-66
2022/08/19 09:15:33;;;;;;;11.60;10.50;;;22.80;99.90;;;;;;5119161;27;20525;-66
2022/08/19 09:18:06;;;;;;;11.00;10.10;;;22.80;99.90;;;;;;5130700;27;20559;-66
2022/08/19 09:20:44;;;;;;;12.30;11.10;;;22.80;99.90;;;;;;5109750;28;20479;-65
2022/08/19 09:23:17;;;;;;;12.07;10.97;;;22.70;99.90;;;;;;5120552;28;20660;-65
2022/08/19 09:25:55;;;;;;;11.60;10.60;;;22.70;99.90;;;;;;5121836;27;20461;-66
2022/08/19 09:28:28;;;;;;;10.67;9.67;;;22.60;99.90;;;;;;5122599;27;20997;-66
2022/08/19 09:31:01;;;;;;;9.67;8.77;;;22.60;99.90;;;;;;5115994;28;20494;-65
2022/08/19 09:33:32;;;;;;;8.87;8.17;;;22.50;99.90;;;;;;5126942;28;20483;-65
2022/08/19 09:36:08;;;;;;;10.47;9.53;;;22.50;99.90;;;;;;5124535;28;20472;-66
2022/08/19 09:38:41;;;;;;;8.73;8.13;;;22.60;99.90;;;;;;5143145;27;20449;-65
2022/08/19 09:41:15;;;;;;;7.67;6.97;;;22.50;99.90;;;;;;5134885;28;20464;-65
2022/08/19 09:43:51;;;;;;;7.90;7.17;;;22.60;99.90;;;;;;5127115;27;20456;-66
2022/08/19 09:46:23;;;;;;;6.90;6.30;;;22.70;99.90;;;;;;5116848;28;20552;-66
2022/08/19 09:48:56;;;;;;;6.03;5.50;;;22.70;99.90;;;;;;5109272;28;20459;-66
2022/08/19 09:51:35;;;;;;;6.33;5.80;;;22.80;99.90;;;;;;5107699;28;20457;-66
2022/08/19 09:54:07;;;;;;;5.33;4.90;;;22.80;99.90;;;;;;5116192;28;20461;-66
2022/08/19 09:56:40;;;;;;;5.53;5.03;;;22.80;99.90;;;;;;5116946;27;20495;-66
2022/08/19 09:59:11;;;;;;;5.67;5.17;;;22.80;99.90;;;;;;5122702;28;20450;-66
2022/08/19 10:01:42;;;;;;;5.63;5.13;;;22.70;99.90;;;;;;5111185;28;20463;-65
2022/08/19 10:04:14;;;;;;;4.97;4.63;;;22.70;99.90;;;;;;5106736;28;20472;-66
2022/08/19 10:06:51;;;;;;;3.83;3.50;;;22.80;99.90;;;;;;5109223;28;20507;-66
2022/08/19 10:09:25;;;;;;;6.00;4.20;;;22.80;99.90;;;;;;5110260;28;20458;-65
2022/08/19 10:12:04;;;;;;;4.73;4.20;;;22.80;99.90;;;;;;5109447;28;20441;-65
2022/08/19 10:14:41;;;;;;;5.10;4.70;;;22.80;99.90;;;;;;5118069;28;20515;-65
2022/08/19 10:17:11;;;;;;;4.37;4.03;;;22.80;99.90;;;;;;5104374;28;20494;-65
2022/08/19 10:19:50;;;;;;;3.07;2.63;;;22.80;99.90;;;;;;5122036;28;20445;-65
2022/08/19 10:22:24;;;;;;;3.43;3.13;;;22.80;99.90;;;;;;5109997;28;20461;-65
2022/08/19 10:24:57;;;;;;;3.63;2.60;;;22.70;99.90;;;;;;5117753;28;20462;-65
2022/08/19 10:27:28;;;;;;;3.50;3.20;;;22.70;99.90;;;;;;5120294;28;20510;-66
2022/08/19 10:30:01;;;;;;;3.30;3.00;;;22.60;99.90;;;;;;5129881;28;20485;-65
2022/08/19 10:32:31;;;;;;;2.80;2.50;;;22.60;99.90;;;;;;5119926;28;20480;-65
2022/08/19 10:35:05;;;;;;;4.10;2.90;;;22.60;99.90;;;;;;5142691;27;20502;-66
2022/08/19 10:37:37;;;;;;;3.00;2.80;;;22.60;99.90;;;;;;5122428;27;20485;-66
2022/08/19 10:40:28;;;;;;;2.83;2.63;;;22.50;99.90;;;;;;5116548;28;20456;-65
2022/08/19 10:42:59;;;;;;;3.03;2.80;;;22.40;99.90;;;;;;5120138;28;20538;-66
2022/08/19 10:45:29;;;;;;;3.50;3.20;;;22.40;99.90;;;;;;5129219;27;20465;-66
2022/08/19 10:48:01;;;;;;;3.40;2.70;;;22.40;99.90;;;;;;5119174;28;20449;-66
2022/08/19 10:53:25;;;;;;;2.90;2.53;;;22.40;99.90;;;;;;5135047;27;20471;-65
2022/08/19 10:58:45;;;;;;;3.37;3.07;;;22.40;99.90;;;;;;5115848;27;20487;-66
2022/08/19 11:01:16;;;;;;;3.10;2.70;;;22.40;99.90;;;;;;5122142;28;20472;-66
2022/08/19 11:03:47;;;;;;;3.27;2.97;;;22.40;99.90;;;;;;5144448;27;20563;-66
2022/08/19 11:06:18;;;;;;;2.83;2.50;;;22.40;99.90;;;;;;5118020;27;20491;-66
2022/08/19 11:08:49;;;;;;;2.70;2.50;;;22.40;99.90;;;;;;5133187;27;20449;-66
2022/08/19 11:11:22;;;;;;;2.70;2.50;;;22.30;99.90;;;;;;5115862;27;20466;-66
2022/08/19 11:13:53;;;;;;;2.80;2.10;;;22.40;99.90;;;;;;5113964;27;20461;-66
2022/08/19 11:16:26;;;;;;;2.20;2.00;;;22.30;99.90;;;;;;5124719;27;20453;-66
2022/08/19 11:18:59;;;;;;;2.47;2.20;;;22.30;99.90;;;;;;5120739;27;20853;-67
2022/08/19 11:21:32;;;;;;;5.83;2.13;;;22.30;99.90;;;;;;5115967;27;20469;-66
2022/08/19 11:24:05;;;;;;;2.23;2.00;;;22.20;99.90;;;;;;5122556;27;20472;-66
2022/08/19 11:26:38;;;;;;;2.30;2.10;;;22.20;99.90;;;;;;5116690;27;20652;-66
2022/08/19 11:29:12;;;;;;;2.47;2.27;;;22.20;99.90;;;;;;5125358;27;20461;-66
2022/08/19 11:31:45;;;;;;;2.07;1.87;;;22.20;99.90;;;;;;5122852;27;20485;-66
2022/08/19 11:34:19;;;;;;;2.40;2.00;;;22.10;99.90;;;;;;5108463;27;20461;-66
2022/08/19 11:36:51;;;;;;;2.10;1.90;;;22.10;99.90;;;;;;5131505;27;20463;-66
2022/08/19 11:39:23;;;;;;;1.80;1.70;;;22.00;99.90;;;;;;5136009;27;20480;-66
2022/08/19 11:41:56;;;;;;;2.10;1.93;;;22.00;99.90;;;;;;5116665;27;20930;-66
2022/08/19 11:44:30;;;;;;;1.97;1.80;;;21.90;99.90;;;;;;5140351;27;20461;-66
2022/08/19 11:47:06;;;;;;;1.77;1.67;;;21.90;99.90;;;;;;5123971;27;20465;-66
2022/08/19 11:49:38;;;;;;;2.00;1.80;;;21.90;99.90;;;;;;5137019;27;20786;-66
2022/08/19 11:52:08;;;;;;;1.90;1.57;;;21.80;99.90;;;;;;5122481;27;20441;-66
2022/08/19 11:54:39;;;;;;;1.60;1.50;;;21.80;99.90;;;;;;5124520;27;20445;-66
2022/08/19 11:57:12;;;;;;;1.80;1.70;;;21.80;99.90;;;;;;5117809;27;20463;-66
2022/08/19 11:59:42;;;;;;;1.30;1.20;;;21.70;99.90;;;;;;5128635;27;20512;-65
2022/08/19 12:02:13;;;;;;;1.20;1.10;;;21.70;99.90;;;;;;5122579;28;20944;-66
2022/08/19 12:04:44;;;;;;;1.90;1.80;;;21.60;99.90;;;;;;5113574;27;20489;-66
2022/08/19 12:07:15;;;;;;;3.97;1.57;;;21.50;99.90;;;;;;5132696;27;20466;-66
2022/08/19 12:09:45;;;;;;;1.90;1.57;;;21.50;99.90;;;;;;5132455;27;20472;-65
2022/08/19 12:12:19;;;;;;;1.47;1.30;;;21.40;99.90;;;;;;5110542;27;20462;-66
2022/08/19 12:14:56;;;;;;;1.30;1.20;;;21.40;99.90;;;;;;5125046;27;20801;-65
2022/08/19 12:17:30;;;;;;;2.13;1.40;;;21.30;99.90;;;;;;5129643;27;20462;-66
2022/08/19 12:20:01;;;;;;;1.27;1.17;;;21.30;99.90;;;;;;5122900;27;21315;-66
2022/08/19 12:22:32;;;;;;;1.40;1.30;;;21.30;99.90;;;;;;5143271;27;20552;-65
2022/08/19 12:25:03;;;;;;;1.50;1.33;;;21.30;99.90;;;;;;5130763;27;20454;-65
2022/08/19 12:27:36;;;;;;;1.27;1.17;;;21.20;99.90;;;;;;5117008;27;20457;-65
2022/08/19 12:30:13;;;;;;;1.00;0.90;;;21.20;99.90;;;;;;5119471;27;20469;-65
2022/08/19 12:32:44;;;;;;;1.00;0.90;;;21.10;99.90;;;;;;5110211;27;20934;-65
2022/08/19 12:35:14;;;;;;;1.20;1.10;;;21.10;99.90;;;;;;5119184;27;20454;-65
2022/08/19 12:37:45;;;;;;;1.67;1.40;;;21.10;99.90;;;;;;5119635;27;20449;-66
2022/08/19 12:40:26;;;;;;;1.10;1.07;;;21.00;99.90;;;;;;5105602;28;20514;-65
2022/08/19 12:42:58;;;;;;;1.10;1.00;;;20.90;99.90;;;;;;5116792;27;20471;-65
2022/08/19 12:45:29;;;;;;;1.30;1.20;;;21.00;99.90;;;;;;5123367;28;20425;-65
2022/08/19 12:48:00;;;;;;;1.53;1.10;;;20.90;99.90;;;;;;5122438;28;20428;-65
2022/08/19 12:50:51;;;;;;;1.00;0.90;;;20.80;99.90;;;;;;5129663;27;20447;-66
2022/08/19 12:53:22;;;;;;;0.93;0.93;;;20.80;99.90;;;;;;5123586;27;20434;-66
2022/08/19 12:55:57;;;;;;;0.80;0.80;;;20.80;99.90;;;;;;5130884;27;20461;-65
2022/08/19 12:58:30;;;;;;;0.87;0.70;;;20.70;99.90;;;;;;5123657;28;20457;-65
2022/08/19 13:01:01;;;;;;;1.30;0.93;;;20.70;99.90;;;;;;5120461;27;20923;-65
2022/08/19 13:03:32;;;;;;;1.20;1.10;;;20.60;99.90;;;;;;5106435;28;20474;-65
2022/08/19 13:06:09;;;;;;;0.73;0.73;;;20.60;99.90;;;;;;5116016;28;20455;-65
2022/08/19 13:08:41;;;;;;;0.80;0.80;;;20.60;99.90;;;;;;5126251;27;20491;-65
2022/08/19 13:11:17;;;;;;;0.70;0.70;;;20.60;99.90;;;;;;5128067;27;20760;-65
2022/08/19 13:13:53;;;;;;;0.77;0.70;;;20.60;99.90;;;;;;5118315;27;20457;-65
2022/08/19 13:16:24;;;;;;;0.80;0.80;;;20.50;99.90;;;;;;5110872;28;20462;-65
2022/08/19 13:18:55;;;;;;;0.93;0.90;;;20.50;99.90;;;;;;5124462;27;20561;-65
2022/08/19 13:21:29;;;;;;;0.70;0.70;;;20.50;99.90;;;;;;5123920;27;20458;-65
2022/08/19 13:24:00;;;;;;;1.00;0.90;;;20.50;99.90;;;;;;5112628;28;20458;-65
2022/08/19 13:26:31;;;;;;;0.40;0.37;;;20.50;99.90;;;;;;5131870;27;20418;-65
2022/08/19 13:34:46;;;;;;;0.73;0.70;;;20.50;99.90;;;;;;5107473;28;20444;-65
2022/08/19 13:37:40;;;;;;;0.70;0.70;;;20.50;99.90;;;;;;5106906;28;20524;-65
2022/08/19 13:40:14;;;;;;;0.70;0.53;;;20.50;99.90;;;;;;5109997;28;20440;-65